createdAt,value
2017-08-18T00:00:08.246Z,22.80
2017-08-18T00:02:36.139Z,22.80
2017-08-18T00:05:03.728Z,22.80
2017-08-18T00:07:32.059Z,22.80
2017-08-18T00:09:59.686Z,22.80
2017-08-18T00:12:28.020Z,22.80
2017-08-18T00:14:55.888Z,22.80
2017-08-18T00:17:23.445Z,22.80
2017-08-18T00:19:51.013Z,22.80
2017-08-18T00:22:18.620Z,22.80
2017-08-18T00:24:46.209Z,22.80
2017-08-18T00:27:14.132Z,22.80
2017-08-18T00:29:42.472Z,22.80
2017-08-18T00:32:10.039Z,22.70
2017-08-18T00:34:37.656Z,22.80
2017-08-18T00:37:05.226Z,22.70
2017-08-18T00:39:33.237Z,22.70
2017-08-18T00:42:00.802Z,22.70
2017-08-18T00:44:28.421Z,22.70
2017-08-18T00:46:56.062Z,22.70
2017-08-18T00:49:23.668Z,22.60
2017-08-18T00:51:51.562Z,22.60
2017-08-18T00:54:19.912Z,22.60
2017-08-18T00:56:47.458Z,22.60
2017-08-18T00:59:15.047Z,22.60
2017-08-18T01:01:42.606Z,22.60
2017-08-18T01:04:10.535Z,22.50
2017-08-18T01:06:38.122Z,22.50
2017-08-18T01:09:05.676Z,22.50
2017-08-18T01:11:33.265Z,22.50
2017-08-18T01:14:01.596Z,22.40
2017-08-18T01:16:29.486Z,22.40
2017-08-18T01:18:57.082Z,22.40
2017-08-18T01:21:25.429Z,22.40
2017-08-18T01:23:53.083Z,22.40
2017-08-18T01:26:20.665Z,22.40
2017-08-18T01:28:48.523Z,22.40
2017-08-18T01:31:16.096Z,22.40
2017-08-18T01:33:43.693Z,22.40
2017-08-18T01:36:11.575Z,22.40
2017-08-18T01:38:39.143Z,22.40
2017-08-18T01:41:07.045Z,22.30
2017-08-18T01:43:34.617Z,22.30
2017-08-18T01:46:02.339Z,22.30
2017-08-18T01:48:29.962Z,22.40
2017-08-18T01:50:57.528Z,22.40
2017-08-18T01:53:25.546Z,22.40
2017-08-18T01:55:53.114Z,22.30
2017-08-18T01:58:20.677Z,22.30
2017-08-18T02:00:49.060Z,22.30
2017-08-18T02:03:16.603Z,22.30
2017-08-18T02:05:44.693Z,22.40
2017-08-18T02:08:13.026Z,22.30
2017-08-18T02:10:41.089Z,22.30
2017-08-18T02:13:08.701Z,22.30
2017-08-18T02:15:37.040Z,22.30
2017-08-18T02:18:05.050Z,22.30
2017-08-18T02:20:33.397Z,22.30
2017-08-18T02:23:00.953Z,22.20
2017-08-18T02:25:28.566Z,22.30
2017-08-18T02:27:56.141Z,22.30
2017-08-18T02:30:24.174Z,22.20
2017-08-18T02:32:52.526Z,22.20
2017-08-18T02:35:20.101Z,22.10
2017-08-18T02:37:47.736Z,22.10
2017-08-18T02:40:15.302Z,22.10
2017-08-18T02:42:43.315Z,22.00
2017-08-18T02:45:11.670Z,21.90
2017-08-18T02:47:39.267Z,21.90
2017-08-18T02:50:06.900Z,21.90
2017-08-18T02:52:34.473Z,21.80
2017-08-18T02:55:02.442Z,21.80
2017-08-18T02:57:30.788Z,21.70
2017-08-18T02:59:58.333Z,21.70
2017-08-18T03:02:25.981Z,21.70
2017-08-18T03:04:53.568Z,21.60
2017-08-18T03:07:21.769Z,21.60
2017-08-18T03:09:50.098Z,21.50
2017-08-18T03:12:17.677Z,21.50
2017-08-18T03:14:45.276Z,21.50
2017-08-18T03:17:12.851Z,21.50
2017-08-18T03:19:41.435Z,21.40
2017-08-18T03:22:09.035Z,21.40
2017-08-18T03:24:36.643Z,21.30
2017-08-18T03:27:05.029Z,21.30
2017-08-18T03:29:32.588Z,21.20
2017-08-18T03:32:00.622Z,21.20
2017-08-18T03:34:28.193Z,21.20
2017-08-18T03:36:55.786Z,21.10
2017-08-18T03:39:23.393Z,21.10
2017-08-18T03:41:50.983Z,21.10
2017-08-18T03:44:18.948Z,21.00
2017-08-18T03:46:47.294Z,20.90
2017-08-18T03:49:14.860Z,20.90
2017-08-18T03:51:42.459Z,20.90
2017-08-18T03:54:10.032Z,20.90
2017-08-18T03:56:37.928Z,20.90
2017-08-18T03:59:05.497Z,20.80
2017-08-18T04:01:33.068Z,20.80
2017-08-18T04:04:00.669Z,20.80
2017-08-18T04:06:29.788Z,20.80
2017-08-18T04:08:57.636Z,20.80
2017-08-18T04:11:25.220Z,20.80
2017-08-18T04:13:52.793Z,20.80
2017-08-18T04:16:20.409Z,20.70
2017-08-18T04:18:48.747Z,20.80
2017-08-18T04:21:16.761Z,20.70
2017-08-18T04:23:44.388Z,20.80
2017-08-18T04:26:12.735Z,20.80
2017-08-18T04:28:40.363Z,20.80
2017-08-18T04:31:08.826Z,20.90
2017-08-18T04:33:37.492Z,20.90
2017-08-18T04:36:06.855Z,20.90
2017-08-18T04:38:34.435Z,21.00
2017-08-18T04:41:02.052Z,21.00
2017-08-18T04:43:29.614Z,21.10
2017-08-18T04:45:57.677Z,21.10
2017-08-18T04:48:26.014Z,21.10
2017-08-18T04:50:53.793Z,21.10
2017-08-18T04:53:21.394Z,21.20
2017-08-18T04:55:49.197Z,21.30
2017-08-18T04:58:17.243Z,21.40
2017-08-18T05:00:44.824Z,21.40
2017-08-18T05:03:12.389Z,21.50
2017-08-18T05:05:39.993Z,21.50
2017-08-18T05:08:08.337Z,21.50
2017-08-18T05:10:36.339Z,21.50
2017-08-18T05:13:04.682Z,21.70
2017-08-18T05:15:32.422Z,21.70
2017-08-18T05:18:00.016Z,21.80
2017-08-18T05:20:27.613Z,21.90
2017-08-18T05:22:55.704Z,21.90
2017-08-18T05:25:23.303Z,22.00
2017-08-18T05:27:51.652Z,22.30
2017-08-18T05:30:19.249Z,22.20
2017-08-18T05:32:46.825Z,22.40
2017-08-18T05:35:14.767Z,22.40
2017-08-18T05:37:42.367Z,22.60
2017-08-18T05:40:09.972Z,22.70
2017-08-18T05:42:37.591Z,22.80
2017-08-18T05:45:05.160Z,23.00
2017-08-18T05:47:33.091Z,23.10
2017-08-18T05:50:00.716Z,23.20
2017-08-18T05:52:28.299Z,23.10
2017-08-18T05:54:55.916Z,23.20
2017-08-18T05:57:23.502Z,23.30
2017-08-18T05:59:51.594Z,23.40
2017-08-18T06:02:20.092Z,23.50
2017-08-18T06:04:47.644Z,23.60
2017-08-18T06:07:15.247Z,23.70
2017-08-18T06:09:42.820Z,23.80
2017-08-18T06:12:10.865Z,23.90
2017-08-18T06:14:38.424Z,24.00
2017-08-18T06:17:05.998Z,24.00
2017-08-18T06:19:34.376Z,24.10
2017-08-18T06:22:01.966Z,24.20
2017-08-18T06:24:29.871Z,24.30
2017-08-18T06:26:58.202Z,24.40
2017-08-18T06:29:25.788Z,24.40
2017-08-18T06:31:53.406Z,24.50
2017-08-18T06:34:20.976Z,24.50
2017-08-18T06:36:48.987Z,24.60
2017-08-18T06:39:16.535Z,24.70
2017-08-18T06:41:44.266Z,24.80
2017-08-18T06:44:11.863Z,24.80
2017-08-18T06:46:39.444Z,24.90
2017-08-18T06:49:08.481Z,25.10
2017-08-18T06:51:36.032Z,25.10
2017-08-18T06:54:03.803Z,25.20
2017-08-18T06:56:31.405Z,25.20
2017-08-18T06:58:58.964Z,25.30
2017-08-18T07:01:26.870Z,25.40
2017-08-18T07:03:54.436Z,25.40
2017-08-18T07:06:22.318Z,25.50
2017-08-18T07:08:49.911Z,25.60
2017-08-18T07:11:17.475Z,25.70
2017-08-18T07:13:45.084Z,25.70
2017-08-18T07:16:12.639Z,25.80
2017-08-18T07:18:40.601Z,25.90
2017-08-18T07:21:08.166Z,26.00
2017-08-18T07:23:35.924Z,26.00
2017-08-18T07:26:03.529Z,26.00
2017-08-18T07:28:31.072Z,26.10
2017-08-18T07:30:58.664Z,26.20
2017-08-18T07:33:26.220Z,25.90
2017-08-18T07:35:54.096Z,25.70
2017-08-18T07:38:21.671Z,25.60
2017-08-18T07:40:49.246Z,25.60
2017-08-18T07:43:16.833Z,25.90
2017-08-18T07:45:44.394Z,26.10
2017-08-18T07:48:12.570Z,26.20
2017-08-18T07:50:40.128Z,26.30
2017-08-18T07:53:07.689Z,26.40
2017-08-18T07:55:35.325Z,26.40
2017-08-18T07:58:02.878Z,26.50
2017-08-18T08:00:31.521Z,26.70
2017-08-18T08:02:59.086Z,26.70
2017-08-18T08:05:26.668Z,26.80
2017-08-18T08:07:55.035Z,27.00
2017-08-18T08:10:22.618Z,27.00
2017-08-18T08:12:50.489Z,27.00
2017-08-18T08:15:18.063Z,27.20
2017-08-18T08:17:45.614Z,27.20
2017-08-18T08:20:13.208Z,27.30
2017-08-18T08:22:40.803Z,27.30
2017-08-18T08:25:08.760Z,27.40
2017-08-18T08:27:36.344Z,27.50
2017-08-18T08:30:03.912Z,27.50
2017-08-18T08:32:32.278Z,27.80
2017-08-18T08:34:59.852Z,27.80
2017-08-18T08:37:28.506Z,27.80
2017-08-18T08:39:56.086Z,27.80
2017-08-18T08:42:23.673Z,27.80
2017-08-18T08:44:51.299Z,27.90
2017-08-18T08:47:19.637Z,28.10
2017-08-18T08:49:47.508Z,28.10
2017-08-18T08:52:15.090Z,28.20
2017-08-18T08:54:42.669Z,28.30
2017-08-18T08:57:10.319Z,28.30
2017-08-18T08:59:37.904Z,28.40
2017-08-18T09:02:06.763Z,28.60
2017-08-18T09:04:34.334Z,28.50
2017-08-18T09:07:01.940Z,28.80
2017-08-18T09:09:29.545Z,28.90
2017-08-18T09:11:57.130Z,29.00
2017-08-18T09:14:25.072Z,29.10
2017-08-18T09:16:52.644Z,29.10
2017-08-18T09:19:20.214Z,28.90
2017-08-18T09:21:49.169Z,28.70
2017-08-18T09:24:16.718Z,28.70
2017-08-18T09:26:44.615Z,28.70
2017-08-18T09:29:12.190Z,28.70
2017-08-18T09:31:39.752Z,28.80
2017-08-18T09:34:08.118Z,29.00
2017-08-18T09:36:35.912Z,29.00
2017-08-18T09:39:03.906Z,29.20
2017-08-18T09:41:31.479Z,29.20
2017-08-18T09:43:59.036Z,29.30
2017-08-18T09:46:26.708Z,29.60
2017-08-18T09:49:06.016Z,29.70
2017-08-18T09:51:45.482Z,29.80
2017-08-18T09:54:24.896Z,29.80
2017-08-18T09:57:04.557Z,29.80
2017-08-18T09:59:32.125Z,29.80
2017-08-18T10:01:59.697Z,29.80
2017-08-18T10:04:27.318Z,29.80
2017-08-18T10:06:54.899Z,29.80
2017-08-18T10:09:22.793Z,30.00
2017-08-18T10:11:50.483Z,30.00
2017-08-18T10:14:18.048Z,29.80
2017-08-18T10:16:45.668Z,29.80
2017-08-18T10:19:13.244Z,29.90
2017-08-18T10:21:42.183Z,29.90
2017-08-18T10:24:09.745Z,29.90
2017-08-18T10:26:37.300Z,30.00
2017-08-18T10:29:04.900Z,29.90
2017-08-18T10:31:32.475Z,30.10
2017-08-18T10:34:00.428Z,30.10
2017-08-18T10:36:28.002Z,30.20
2017-08-18T10:38:55.566Z,30.20
2017-08-18T10:41:23.942Z,30.20
2017-08-18T10:43:51.520Z,30.20
2017-08-18T10:46:19.524Z,30.30
2017-08-18T10:49:16.791Z,30.20
2017-08-18T10:51:44.398Z,30.10
2017-08-18T10:54:12.732Z,30.10
2017-08-18T10:56:40.582Z,30.10
2017-08-18T10:59:08.146Z,30.20
2017-08-18T11:01:35.731Z,30.00
2017-08-18T11:04:03.472Z,30.00
2017-08-18T11:06:31.043Z,30.00
2017-08-18T11:08:58.896Z,30.10
2017-08-18T11:11:26.476Z,30.10
2017-08-18T11:13:54.048Z,30.10
2017-08-18T11:16:21.674Z,30.10
2017-08-18T11:18:49.233Z,30.10
2017-08-18T11:21:17.129Z,30.00
2017-08-18T11:23:44.870Z,30.00
2017-08-18T11:26:12.446Z,30.10
2017-08-18T11:28:40.055Z,30.20
2017-08-18T11:31:07.655Z,30.20
2017-08-18T11:33:35.596Z,30.30
2017-08-18T11:36:03.192Z,30.30
2017-08-18T11:38:30.777Z,30.20
2017-08-18T11:40:58.397Z,30.10
2017-08-18T11:43:25.956Z,30.00
2017-08-18T11:45:53.962Z,29.90
2017-08-18T11:48:21.548Z,29.80
2017-08-18T11:50:49.124Z,29.80
2017-08-18T11:53:16.893Z,29.90
2017-08-18T11:55:44.478Z,30.00
2017-08-18T11:58:12.463Z,30.10
2017-08-18T12:00:40.066Z,30.10
2017-08-18T12:03:07.628Z,30.20
2017-08-18T12:05:35.252Z,30.20
2017-08-18T12:08:02.821Z,30.20
2017-08-18T12:10:30.780Z,30.10
2017-08-18T12:12:58.336Z,29.90
2017-08-18T12:15:25.917Z,29.80
2017-08-18T12:17:54.275Z,30.10
2017-08-18T12:20:21.867Z,30.10
2017-08-18T12:22:50.553Z,30.50
2017-08-18T12:25:18.883Z,30.60
2017-08-18T12:27:46.440Z,30.60
2017-08-18T12:30:14.044Z,30.70
2017-08-18T12:32:41.587Z,30.80
2017-08-18T12:35:09.454Z,31.00
2017-08-18T12:37:37.020Z,31.10
2017-08-18T12:40:04.580Z,31.10
2017-08-18T12:42:32.183Z,31.10
2017-08-18T12:44:59.770Z,31.10
2017-08-18T12:47:27.769Z,30.80
2017-08-18T12:49:55.311Z,30.60
2017-08-18T12:52:22.925Z,30.50
2017-08-18T12:54:50.536Z,30.30
2017-08-18T12:57:18.119Z,30.30
2017-08-18T12:59:45.993Z,30.40
2017-08-18T13:02:13.571Z,30.50
2017-08-18T13:04:41.137Z,30.50
2017-08-18T13:07:08.742Z,30.60
2017-08-18T13:09:36.317Z,30.80
2017-08-18T13:12:04.994Z,31.30
2017-08-18T13:14:32.556Z,31.30
2017-08-18T13:17:00.195Z,31.50
2017-08-18T13:19:27.876Z,31.70
2017-08-18T13:21:55.497Z,32.30
2017-08-18T13:24:23.535Z,32.70
2017-08-18T13:26:51.150Z,33.00
2017-08-18T13:29:18.695Z,33.90
2017-08-18T13:31:46.656Z,33.60
2017-08-18T13:34:14.305Z,34.60
2017-08-18T13:36:42.396Z,34.80
2017-08-18T13:39:09.975Z,35.30
2017-08-18T13:41:37.716Z,35.50
2017-08-18T13:44:05.356Z,35.00
2017-08-18T13:46:32.936Z,35.40
2017-08-18T13:49:01.131Z,35.60
2017-08-18T13:51:28.756Z,35.50
2017-08-18T13:53:56.458Z,35.10
2017-08-18T13:56:24.299Z,35.00
2017-08-18T13:58:51.908Z,35.00
2017-08-18T14:01:19.599Z,34.80
2017-08-18T14:03:47.212Z,34.60
2017-08-18T14:06:15.216Z,34.40
2017-08-18T14:08:43.586Z,35.10
2017-08-18T14:11:11.229Z,35.20
2017-08-18T14:13:38.862Z,35.00
2017-08-18T14:16:06.497Z,34.80
2017-08-18T14:18:34.351Z,34.60
2017-08-18T14:21:02.950Z,34.30
2017-08-18T14:23:30.535Z,34.30
2017-08-18T14:28:57.355Z,34.10
2017-08-18T14:31:26.017Z,33.60
2017-08-18T14:33:53.592Z,33.60
2017-08-18T14:36:21.130Z,33.30
2017-08-18T14:38:49.582Z,33.10
2017-08-18T14:41:17.241Z,32.90
2017-08-18T14:43:45.348Z,32.70
2017-08-18T14:46:13.180Z,32.60
2017-08-18T14:48:40.768Z,32.50
2017-08-18T14:51:08.372Z,32.50
2017-08-18T14:53:35.952Z,32.40
2017-08-18T14:56:03.856Z,32.30
2017-08-18T14:58:31.418Z,32.20
2017-08-18T15:00:59.972Z,32.10
2017-08-18T15:03:27.665Z,32.00
2017-08-18T15:05:55.246Z,31.90
2017-08-18T15:08:23.661Z,31.70
2017-08-18T15:10:51.271Z,31.60
2017-08-18T15:13:18.814Z,31.40
2017-08-18T15:15:46.463Z,31.20
2017-08-18T15:18:14.702Z,31.10
2017-08-18T15:20:42.722Z,31.10
2017-08-18T15:23:10.310Z,30.90
2017-08-18T15:25:37.920Z,30.80
2017-08-18T15:28:05.531Z,30.70
2017-08-18T15:30:33.864Z,30.60
2017-08-18T15:33:01.870Z,30.60
2017-08-18T15:35:29.454Z,30.50
2017-08-18T15:37:57.056Z,30.50
2017-08-18T15:40:24.666Z,30.70
2017-08-18T15:42:53.044Z,30.90
2017-08-18T15:45:20.998Z,30.90
2017-08-18T15:47:48.646Z,30.80
2017-08-18T15:50:16.209Z,30.80
2017-08-18T15:52:43.836Z,30.80
2017-08-18T15:55:11.394Z,31.70
2017-08-18T15:57:39.310Z,33.50
2017-08-18T16:00:07.663Z,35.50
2017-08-18T16:02:35.236Z,35.50
2017-08-18T16:05:02.858Z,35.50
2017-08-18T16:07:30.431Z,34.70
2017-08-18T16:09:58.438Z,34.00
2017-08-18T16:12:26.782Z,32.90
2017-08-18T16:14:54.354Z,32.90
2017-08-18T16:17:21.996Z,32.40
2017-08-18T16:19:49.586Z,32.10
2017-08-18T16:22:17.594Z,31.70
2017-08-18T16:24:45.185Z,31.40
2017-08-18T16:27:12.816Z,31.10
2017-08-18T16:29:40.416Z,30.90
2017-08-18T16:32:07.978Z,30.70
2017-08-18T16:34:35.878Z,30.50
2017-08-18T16:37:03.450Z,30.40
2017-08-18T16:39:31.013Z,30.30
2017-08-18T16:41:59.388Z,30.10
2017-08-18T16:44:26.954Z,30.10
2017-08-18T16:46:55.230Z,30.00
2017-08-18T16:49:22.801Z,29.90
2017-08-18T16:51:50.384Z,29.90
2017-08-18T16:54:18.128Z,29.80
2017-08-18T16:56:45.695Z,29.70
2017-08-18T16:59:13.769Z,29.60
2017-08-18T17:01:41.342Z,29.60
2017-08-18T17:04:08.918Z,29.50
2017-08-18T17:06:36.530Z,29.40
2017-08-18T17:09:04.111Z,29.30
2017-08-18T17:11:32.047Z,29.20
2017-08-18T17:14:00.377Z,29.10
2017-08-18T17:16:27.971Z,29.00
2017-08-18T17:18:56.356Z,28.90
2017-08-18T17:21:23.924Z,28.90
2017-08-18T17:23:51.543Z,28.80
2017-08-18T17:26:19.105Z,28.80
2017-08-18T17:28:47.096Z,28.70
2017-08-18T17:31:14.659Z,28.70
2017-08-18T17:33:42.234Z,28.60
2017-08-18T17:36:09.954Z,28.60
2017-08-18T17:38:37.521Z,28.50
2017-08-18T17:41:05.443Z,28.40
2017-08-18T17:43:33.036Z,28.30
2017-08-18T17:46:00.609Z,28.30
2017-08-18T17:48:28.224Z,28.20
2017-08-18T17:50:55.799Z,28.10
2017-08-18T17:53:23.705Z,28.10
2017-08-18T17:55:51.285Z,28.00
2017-08-18T17:58:18.995Z,28.00
2017-08-18T18:00:46.638Z,27.90
2017-08-18T18:03:14.217Z,27.80
2017-08-18T18:05:42.029Z,27.80
2017-08-18T18:08:10.380Z,27.70
2017-08-18T18:10:38.007Z,27.70
2017-08-18T18:13:05.594Z,27.60
2017-08-18T18:15:33.152Z,27.50
2017-08-18T18:18:01.025Z,27.40
2017-08-18T18:20:28.602Z,27.40
2017-08-18T18:22:56.180Z,27.30
2017-08-18T18:25:24.153Z,27.30
2017-08-18T18:27:52.528Z,27.20
2017-08-18T18:30:20.120Z,27.20
2017-08-18T18:32:48.161Z,27.20
2017-08-18T18:35:16.504Z,27.20
2017-08-18T18:37:44.074Z,27.20
2017-08-18T18:40:11.717Z,27.20
2017-08-18T18:42:39.301Z,27.20
2017-08-18T18:45:07.464Z,27.20
2017-08-18T18:47:35.040Z,27.10
2017-08-18T18:50:02.851Z,27.10
2017-08-18T18:52:30.499Z,27.10
2017-08-18T18:54:58.178Z,27.00
2017-08-18T18:57:26.195Z,27.00
2017-08-18T18:59:53.789Z,27.00
2017-08-18T19:02:21.367Z,26.90
2017-08-18T19:04:48.994Z,26.90
2017-08-18T19:07:17.364Z,26.80
2017-08-18T19:09:45.291Z,26.70
2017-08-18T19:12:12.991Z,26.60
2017-08-18T19:14:40.577Z,26.40
2017-08-18T19:17:08.204Z,25.80
2017-08-18T19:19:35.769Z,25.10
2017-08-18T19:22:03.859Z,24.40
2017-08-18T19:24:32.227Z,23.30
2017-08-18T19:27:00.648Z,23.30
2017-08-18T19:29:28.264Z,23.00
2017-08-18T19:31:55.864Z,22.90
2017-08-18T19:34:23.797Z,22.70
2017-08-18T19:36:51.385Z,22.50
2017-08-18T19:39:18.956Z,22.40
2017-08-18T19:41:46.660Z,22.30
2017-08-18T19:44:14.248Z,22.40
2017-08-18T19:46:43.011Z,22.50
2017-08-18T19:49:10.565Z,22.50
2017-08-18T19:51:38.190Z,22.50
2017-08-18T19:54:05.862Z,22.50
2017-08-18T19:56:33.475Z,22.50
2017-08-18T19:59:01.436Z,22.50
2017-08-18T20:01:29.025Z,22.50
2017-08-18T20:03:56.602Z,22.60
2017-08-18T20:06:24.285Z,22.50
2017-08-18T20:08:51.865Z,22.50
2017-08-18T20:11:20.092Z,22.30
2017-08-18T20:13:47.681Z,22.20
2017-08-18T20:16:15.409Z,22.20
2017-08-18T20:18:43.014Z,22.10
2017-08-18T20:21:10.612Z,22.20
2017-08-18T20:23:39.540Z,22.30
2017-08-18T20:26:07.315Z,22.20
2017-08-18T20:28:34.908Z,22.20
2017-08-18T20:31:02.550Z,22.30
2017-08-18T20:33:30.159Z,22.20
2017-08-18T20:35:58.802Z,22.40
2017-08-18T20:38:26.425Z,22.30
2017-08-18T20:40:54.106Z,22.40
2017-08-18T20:43:21.700Z,22.40
2017-08-18T20:45:49.272Z,22.40
2017-08-18T20:48:17.182Z,22.30
2017-08-18T20:50:44.755Z,22.30
2017-08-18T20:53:12.325Z,22.30
2017-08-18T20:55:39.954Z,22.30
2017-08-18T20:58:07.525Z,22.30
2017-08-18T21:00:35.643Z,22.20
2017-08-18T21:03:03.201Z,22.20
2017-08-18T21:05:30.762Z,22.10
2017-08-18T21:07:58.399Z,22.10
2017-08-18T21:10:25.983Z,22.10
2017-08-18T21:12:53.966Z,22.10
2017-08-18T21:15:22.294Z,22.10
2017-08-18T21:17:49.882Z,22.00
2017-08-18T21:20:17.627Z,22.00
2017-08-18T21:22:45.195Z,22.00
2017-08-18T21:25:13.072Z,21.90
2017-08-18T21:27:40.646Z,22.00
2017-08-18T21:30:08.230Z,22.00
2017-08-18T21:32:35.861Z,21.90
2017-08-18T21:35:03.428Z,21.80
2017-08-18T21:37:31.389Z,21.80
2017-08-18T21:39:58.977Z,21.80
2017-08-18T21:42:26.537Z,21.70
2017-08-18T21:44:54.913Z,21.80
2017-08-18T21:47:22.483Z,21.80
2017-08-18T21:49:50.525Z,21.80
2017-08-18T21:52:18.092Z,21.80
2017-08-18T21:54:45.664Z,21.80
2017-08-18T21:57:14.029Z,21.70
2017-08-18T21:59:41.591Z,21.70
2017-08-18T22:02:10.246Z,21.70
2017-08-18T22:04:37.818Z,21.70
2017-08-18T22:07:05.409Z,21.60
2017-08-18T22:09:33.012Z,21.70
2017-08-18T22:12:00.568Z,21.60
2017-08-18T22:14:28.759Z,21.60
2017-08-18T22:16:56.401Z,21.50
2017-08-18T22:19:24.084Z,21.50
2017-08-18T22:21:51.683Z,21.50
2017-08-18T22:24:19.232Z,21.50
2017-08-18T22:26:47.890Z,21.40
2017-08-18T22:29:15.429Z,21.40
2017-08-18T22:31:43.180Z,21.40
2017-08-18T22:34:10.930Z,21.30
2017-08-18T22:36:38.502Z,21.30
2017-08-18T22:39:06.429Z,21.10
2017-08-18T22:41:34.749Z,21.10
2017-08-18T22:44:02.317Z,21.00
2017-08-18T22:46:29.951Z,21.00
2017-08-18T22:48:57.542Z,21.00
2017-08-18T22:51:25.547Z,21.00
2017-08-18T22:53:53.123Z,21.00
2017-08-18T22:56:20.707Z,21.00
2017-08-18T22:58:48.329Z,20.90
2017-08-18T23:01:15.906Z,20.80
2017-08-18T23:03:43.916Z,20.80
2017-08-18T23:06:11.495Z,20.70
2017-08-18T23:08:39.050Z,20.70
2017-08-18T23:11:07.407Z,20.60
2017-08-18T23:13:34.983Z,20.50
2017-08-18T23:16:03.847Z,20.40
2017-08-18T23:18:31.405Z,20.40
2017-08-18T23:20:58.990Z,20.40
2017-08-18T23:23:27.359Z,20.50
2017-08-18T23:25:54.915Z,20.40
2017-08-18T23:28:23.797Z,20.50
2017-08-18T23:30:51.346Z,20.50
2017-08-18T23:33:18.929Z,20.50
2017-08-18T23:35:46.771Z,20.50
2017-08-18T23:38:14.391Z,20.50
2017-08-18T23:40:42.312Z,20.50
2017-08-18T23:43:09.872Z,20.50
2017-08-18T23:45:37.445Z,20.40
2017-08-18T23:48:05.821Z,20.40
2017-08-18T23:50:33.372Z,20.40
2017-08-18T23:53:01.614Z,20.40
2017-08-18T23:55:29.176Z,20.40
2017-08-18T23:57:56.733Z,20.40
